Time;durP1;ratioP1;P1;durP2;ratioP2;P2;SDS_P1;SDS_P2;PMS_P1;PMS_P2;Temp;Humidity;BMP_temperature;BMP_pressure;BME280_temperature;BME280_humidity;BME280_pressure;Samples;Min_cycle;Max_cycle;Signal;HPM_P1;HPM_P2
2021/06/21 00:00:25;;;;;;;29.30;5.40;;;;;;;22.48;50.81;92046.78;2071277;69;20151;-74
2021/06/21 00:02:51;;;;;;;32.58;5.80;;;;;;;22.39;50.05;92045.31;2071367;69;20187;-74
2021/06/21 00:05:18;;;;;;;39.60;6.93;;;;;;;22.17;51.08;92051.59;2071120;69;20148;-75
2021/06/21 00:07:43;;;;;;;36.92;5.68;;;;;;;22.39;49.59;92042.44;2071197;69;20254;-74
2021/06/21 00:10:12;;;;;;;34.60;5.07;;;;;;;22.17;51.47;92043.00;2070492;69;20659;-74
2021/06/21 00:12:41;;;;;;;34.65;6.25;;;;;;;21.74;52.66;92056.94;2071755;69;20144;-74
2021/06/21 00:15:09;;;;;;;34.25;6.10;;;;;;;21.80;52.86;92045.53;2071793;69;20209;-74
2021/06/21 00:17:34;;;;;;;35.60;5.93;;;;;;;21.81;52.82;92047.00;2071770;69;20617;-74
2021/06/21 00:20:00;;;;;;;35.90;6.13;;;;;;;22.16;51.18;92050.16;2071628;69;20175;-74
2021/06/21 00:22:26;;;;;;;33.10;6.18;;;;;;;22.29;50.20;92058.13;2071747;69;20148;-74
2021/06/21 00:24:52;;;;;;;36.17;6.07;;;;;;;21.99;51.57;92072.19;2071725;69;20323;-74
2021/06/21 00:27:17;;;;;;;35.10;6.50;;;;;;;21.93;51.65;92052.81;2071909;69;20176;-74
2021/06/21 00:29:43;;;;;;;39.35;6.32;;;;;;;22.29;49.81;92048.81;2071748;69;20160;-73
2021/06/21 00:32:09;;;;;;;34.53;6.65;;;;;;;22.28;50.10;92044.50;2071761;69;20211;-74
2021/06/21 00:34:35;;;;;;;40.08;6.43;;;;;;;21.95;50.83;92043.53;2071715;69;20583;-74
2021/06/21 00:37:01;;;;;;;36.60;6.07;;;;;;;22.00;50.76;92047.88;2071757;69;20164;-74
2021/06/21 00:39:27;;;;;;;36.67;6.05;;;;;;;21.76;52.89;92034.78;2071683;69;20213;-74
2021/06/21 00:41:53;;;;;;;40.90;5.75;;;;;;;21.65;52.12;92035.38;2071758;69;20136;-73
2021/06/21 00:44:19;;;;;;;31.42;5.90;;;;;;;21.91;50.97;92026.31;2072009;69;20180;-72
2021/06/21 00:46:45;;;;;;;38.08;5.97;;;;;;;20.93;54.65;92026.03;2070862;69;20231;-72
2021/06/21 00:49:12;;;;;;;39.15;6.07;;;;;;;21.40;52.70;92032.28;2071004;69;20166;-72
2021/06/21 00:51:39;;;;;;;35.50;5.88;;;;;;;21.75;51.41;92032.59;2071600;69;20206;-72
2021/06/21 00:54:04;;;;;;;34.65;6.53;;;;;;;21.58;52.45;92034.63;2071837;69;20138;-73
2021/06/21 00:56:30;;;;;;;33.80;5.80;;;;;;;21.34;53.56;92035.06;2071663;69;20158;-73
2021/06/21 00:59:01;;;;;;;32.80;5.72;;;;;;;21.44;52.31;92023.75;2071923;69;20703;-72
2021/06/21 01:01:28;;;;;;;45.85;6.18;;;;;;;21.11;54.71;92019.06;2068373;69;20506;-73
2021/06/21 01:03:54;;;;;;;38.38;6.28;;;;;;;21.36;52.79;92020.09;2068447;69;20663;-74
2021/06/21 01:06:19;;;;;;;36.17;6.25;;;;;;;21.46;52.30;92031.63;2071634;69;20148;-74
2021/06/21 01:08:45;;;;;;;40.13;5.30;;;;;;;21.14;54.40;92041.28;2071678;69;20144;-74
2021/06/21 01:11:12;;;;;;;39.95;6.20;;;;;;;21.02;54.31;92055.44;2071793;69;20172;-74
2021/06/21 01:13:49;;;;;;;35.05;6.13;;;;;;;21.48;52.90;92049.53;2071662;69;20156;-74
2021/06/21 01:16:20;;;;;;;40.92;6.65;;;;;;;21.92;51.33;92037.06;2071725;69;20148;-74
2021/06/21 01:18:53;;;;;;;36.72;6.57;;;;;;;21.52;51.42;92046.72;2071882;69;20179;-75
2021/06/21 01:21:38;;;;;;;43.38;6.20;;;;;;;20.92;54.15;92056.06;2071704;69;20140;-73
2021/06/21 01:24:37;;;;;;;38.35;5.55;;;;;;;21.39;52.51;92065.19;2071931;69;20582;-73
2021/06/21 01:27:24;;;;;;;44.65;5.97;;;;;;;21.80;50.99;92051.25;2071679;69;20144;-73
2021/06/21 01:30:16;;;;;;;37.35;6.25;;;;;;;21.37;52.73;92042.28;2071476;69;20511;-72
2021/06/21 01:32:55;;;;;;;38.33;7.00;;;;;;;20.47;55.37;92049.75;2071541;69;20171;-74
2021/06/21 01:35:36;;;;;;;35.67;6.43;;;;;;;21.10;53.65;92061.28;2071230;69;20257;-72
2021/06/21 01:38:07;;;;;;;31.38;5.70;;;;;;;21.18;52.87;92041.34;2071405;69;20149;-74
2021/06/21 01:40:40;;;;;;;39.45;6.43;;;;;;;21.43;51.61;92033.03;2071789;69;20154;-72
2021/06/21 01:43:11;;;;;;;45.35;6.10;;;;;;;21.43;52.36;92030.88;2071405;69;20148;-75
2021/06/21 01:45:36;;;;;;;37.80;6.32;;;;;;;21.36;51.81;92031.53;2071505;69;20210;-72
2021/06/21 01:48:03;;;;;;;34.70;6.00;;;;;;;21.17;52.73;92022.00;2071647;69;20148;-74
2021/06/21 01:50:30;;;;;;;32.08;5.10;;;;;;;21.15;53.85;92037.00;2070747;69;20152;-73
2021/06/21 01:53:15;;;;;;;34.38;5.82;;;;;;;21.17;54.01;92039.91;2071262;69;20592;-74
2021/06/21 01:56:14;;;;;;;43.10;6.07;;;;;;;20.96;54.46;92035.34;2071413;69;20187;-71
2021/06/21 01:58:41;;;;;;;42.92;7.10;;;;;;;21.12;53.04;92037.66;2065334;69;20213;-75
2021/06/21 02:01:20;;;;;;;32.20;6.18;;;;;;;21.34;51.52;92022.91;2068294;69;20592;-74
2021/06/21 02:03:55;;;;;;;36.78;6.03;;;;;;;21.13;52.67;92024.81;2067941;69;20176;-74
2021/06/21 02:06:25;;;;;;;33.60;6.07;;;;;;;20.99;52.85;92028.97;2068232;69;20229;-73
2021/06/21 02:08:51;;;;;;;33.33;6.22;;;;;;;20.96;52.69;92026.78;2068182;69;20641;-75
2021/06/21 02:11:18;;;;;;;31.27;5.63;;;;;;;21.17;52.25;92022.72;2068266;69;20154;-75
2021/06/21 02:13:47;;;;;;;45.95;6.13;;;;;;;21.05;53.54;92028.31;2068118;69;20195;-73
2021/06/21 02:16:14;;;;;;;39.78;6.55;;;;;;;21.19;51.52;92025.59;2068164;69;20156;-74
2021/06/21 02:18:41;;;;;;;37.88;5.85;;;;;;;20.99;52.80;92026.09;2064498;69;20944;-74
2021/06/21 02:21:08;;;;;;;40.97;6.95;;;;;;;20.89;53.52;92026.00;2068191;69;20159;-73
2021/06/21 02:23:36;;;;;;;35.97;6.13;;;;;;;20.77;54.45;92032.28;2068347;69;20578;-74
2021/06/21 02:26:02;;;;;;;38.78;6.07;;;;;;;20.82;53.74;92027.31;2068261;69;20157;-74
2021/06/21 02:28:28;;;;;;;32.95;6.40;;;;;;;20.94;52.36;92038.94;2068219;69;20288;-74
2021/06/21 02:30:57;;;;;;;38.42;5.88;;;;;;;20.72;55.76;92030.06;2068345;69;20164;-74
2021/06/21 02:33:22;;;;;;;28.73;6.03;;;;;;;20.67;54.27;92025.72;2068214;69;20144;-74
2021/06/21 02:35:48;;;;;;;36.22;6.22;;;;;;;20.67;53.71;92037.88;2068130;69;20230;-74
2021/06/21 02:38:14;;;;;;;36.95;6.28;;;;;;;20.56;55.64;92034.16;2068399;69;20149;-74
2021/06/21 02:40:41;;;;;;;36.88;5.82;;;;;;;20.53;54.98;92041.28;2068225;69;20232;-74
2021/06/21 02:43:07;;;;;;;31.35;5.78;;;;;;;20.47;55.55;92037.56;2068130;69;20141;-75
2021/06/21 02:45:34;;;;;;;36.47;6.30;;;;;;;20.37;55.57;92037.44;2068751;69;20171;-73
2021/06/21 02:48:01;;;;;;;32.10;6.60;;;;;;;20.37;56.00;92026.00;2068695;69;20237;-74
2021/06/21 02:50:27;;;;;;;41.20;6.85;;;;;;;19.88;57.35;92042.41;2068622;69;20226;-73
2021/06/21 02:53:11;;;;;;;31.95;6.43;;;;;;;20.21;54.96;92047.22;2068634;69;20156;-73
2021/06/21 02:55:47;;;;;;;34.42;6.32;;;;;;;20.17;56.45;92049.31;2068804;69;20603;-74
2021/06/21 02:58:26;;;;;;;35.95;6.28;;;;;;;20.24;55.83;92037.25;2068801;69;20149;-72
2021/06/21 03:00:54;;;;;;;33.78;6.18;;;;;;;20.41;54.89;92038.22;2068712;69;20175;-75
2021/06/21 03:03:26;;;;;;;42.17;6.15;;;;;;;20.27;56.32;92047.31;2068642;69;20282;-74
2021/06/21 03:05:53;;;;;;;41.65;7.68;;;;;;;20.36;55.93;92051.00;2065203;69;20231;-74
2021/06/21 03:08:20;;;;;;;33.13;5.63;;;;;;;20.33;55.84;92043.09;2068619;69;20623;-74
2021/06/21 03:10:49;;;;;;;40.00;7.47;;;;;;;20.28;56.13;92045.16;2068632;69;20195;-74
2021/06/21 03:13:19;;;;;;;38.45;6.15;;;;;;;20.31;53.80;92047.38;2068622;69;20151;-73
2021/06/21 03:15:44;;;;;;;37.47;6.60;;;;;;;20.39;56.00;92043.91;2068644;69;20153;-73
2021/06/21 03:18:11;;;;;;;29.88;5.88;;;;;;;20.48;55.58;92039.78;2068585;69;20152;-74
2021/06/21 03:20:37;;;;;;;42.78;6.65;;;;;;;19.92;56.84;92045.34;2068536;69;20149;-74
2021/06/21 03:23:04;;;;;;;35.03;6.45;;;;;;;20.42;54.40;92053.94;2068609;69;20144;-72
2021/06/21 03:25:32;;;;;;;38.97;6.18;;;;;;;20.23;56.34;92055.09;2068640;69;20172;-72
2021/06/21 03:28:07;;;;;;;40.13;7.45;;;;;;;20.42;55.69;92067.50;2068590;69;20156;-73
2021/06/21 03:30:33;;;;;;;42.38;7.60;;;;;;;20.42;54.86;92070.38;2068635;69;20231;-74
2021/06/21 03:32:58;;;;;;;40.97;7.07;;;;;;;20.25;55.01;92073.00;2068696;69;20140;-74
2021/06/21 03:35:26;;;;;;;39.83;6.88;;;;;;;20.25;55.80;92073.00;2068485;69;20143;-73
2021/06/21 03:37:51;;;;;;;35.60;6.22;;;;;;;20.33;55.26;92069.53;2068621;69;20234;-73
2021/06/21 03:40:17;;;;;;;45.17;6.35;;;;;;;20.37;56.09;92066.72;2068679;69;20168;-73
2021/06/21 03:42:43;;;;;;;39.90;7.43;;;;;;;20.30;57.15;92065.94;2068566;69;20165;-72
2021/06/21 03:45:10;;;;;;;37.03;6.18;;;;;;;20.45;55.82;92066.13;2068568;69;20141;-74
2021/06/21 03:47:37;;;;;;;36.17;6.78;;;;;;;19.96;57.21;92068.97;2068567;69;20149;-74
2021/06/21 03:50:06;;;;;;;39.80;6.72;;;;;;;20.25;56.04;92077.97;2068455;69;20218;-74
2021/06/21 03:52:31;;;;;;;31.65;6.15;;;;;;;20.47;54.49;92077.59;2068583;69;20164;-74
2021/06/21 03:55:06;;;;;;;36.75;6.88;;;;;;;19.64;58.47;92079.84;2068578;69;20527;-72
2021/06/21 03:57:45;;;;;;;35.30;6.65;;;;;;;19.92;56.80;92086.03;2068699;69;20156;-74
2021/06/21 04:00:14;;;;;;;42.00;6.50;;;;;;;20.12;56.81;92084.94;2068577;69;20175;-74
2021/06/21 04:02:40;;;;;;;32.88;6.90;;;;;;;20.10;57.51;92090.59;2068618;69;20155;-73
2021/06/21 04:05:06;;;;;;;38.15;7.13;;;;;;;20.11;56.71;92097.75;2068505;69;20511;-73
2021/06/21 04:07:32;;;;;;;39.20;6.70;;;;;;;20.32;54.83;92102.38;2062458;69;20184;-72
2021/06/21 04:09:58;;;;;;;32.00;6.45;;;;;;;20.41;55.32;92106.09;2068578;69;20536;-74
2021/06/21 04:12:24;;;;;;;38.15;6.47;;;;;;;20.33;56.71;92111.69;2068678;69;20151;-73
2021/06/21 04:14:51;;;;;;;35.65;6.13;;;;;;;20.37;56.20;92106.03;2068560;69;20147;-73
2021/06/21 04:17:17;;;;;;;36.70;6.72;;;;;;;20.41;56.19;92106.81;2068534;69;20524;-74
2021/06/21 04:19:43;;;;;;;37.83;6.15;;;;;;;20.53;54.10;92109.88;2068479;69;20153;-72
2021/06/21 04:22:09;;;;;;;39.65;6.45;;;;;;;20.40;54.48;92118.94;2068540;69;20615;-74
2021/06/21 04:24:35;;;;;;;36.63;6.90;;;;;;;20.48;54.67;92111.25;2068751;69;20149;-73
2021/06/21 04:27:00;;;;;;;35.97;6.10;;;;;;;20.63;54.83;92108.59;2068653;69;20152;-73
2021/06/21 04:29:26;;;;;;;35.38;6.35;;;;;;;20.66;53.99;92110.03;2065243;69;20140;-74
2021/06/21 04:31:52;;;;;;;31.38;7.53;;;;;;;20.50;55.88;92105.53;2065417;69;20148;-74
2021/06/21 04:34:18;;;;;;;48.65;7.68;;;;;;;20.50;55.15;92104.81;2065065;69;20292;-73
2021/06/21 04:36:44;;;;;;;36.92;7.32;;;;;;;20.37;56.72;92101.03;2068488;69;20153;-73
2021/06/21 04:39:09;;;;;;;42.05;7.20;;;;;;;20.36;56.78;92096.75;2068505;69;20600;-74
2021/06/21 04:41:35;;;;;;;42.72;6.68;;;;;;;20.40;57.32;92093.22;2068618;69;20153;-73
2021/06/21 04:44:01;;;;;;;36.97;6.72;;;;;;;20.30;56.78;92085.94;2068487;69;20713;-73
2021/06/21 04:46:29;;;;;;;37.92;6.63;;;;;;;20.36;55.84;92091.03;2068607;69;20152;-74
2021/06/21 04:48:56;;;;;;;35.10;5.85;;;;;;;19.94;57.13;92093.94;2068426;69;20235;-73
2021/06/21 04:51:22;;;;;;;38.15;6.97;;;;;;;20.27;56.39;92098.03;2065110;69;20296;-74
2021/06/21 04:53:48;;;;;;;44.55;7.45;;;;;;;20.40;55.17;92093.22;2068497;69;20149;-74
2021/06/21 04:56:15;;;;;;;36.67;6.97;;;;;;;20.18;57.80;92102.16;2068433;69;20224;-73
2021/06/21 04:58:42;;;;;;;43.35;6.13;;;;;;;20.25;56.02;92098.72;2068546;69;20161;-74
2021/06/21 05:01:07;;;;;;;35.92;7.05;;;;;;;20.15;58.00;92112.13;2068428;69;20205;-74
2021/06/21 05:03:36;;;;;;;41.17;6.40;;;;;;;20.37;55.13;92112.47;2068450;69;20629;-73
2021/06/21 05:06:04;;;;;;;42.75;6.97;;;;;;;20.38;55.22;92113.91;2068335;69;20628;-73
2021/06/21 05:08:29;;;;;;;45.17;7.13;;;;;;;20.36;56.68;92131.03;2068380;69;20214;-74
2021/06/21 05:10:55;;;;;;;41.83;6.95;;;;;;;20.27;56.71;92133.03;2068555;69;20152;-73
2021/06/21 05:13:20;;;;;;;39.42;7.38;;;;;;;20.33;55.25;92134.53;2068448;69;20228;-73
2021/06/21 05:15:46;;;;;;;42.03;7.40;;;;;;;19.79;57.79;92124.38;2065070;69;20241;-73
2021/06/21 05:18:12;;;;;;;31.00;6.57;;;;;;;20.05;58.16;92119.09;2068510;69;20149;-73
2021/06/21 05:20:37;;;;;;;41.17;6.78;;;;;;;20.06;56.77;92120.53;2068402;69;20512;-73
2021/06/21 05:23:03;;;;;;;35.15;7.43;;;;;;;20.07;58.07;92121.28;2068412;69;20144;-72
2021/06/21 05:25:32;;;;;;;41.70;7.00;;;;;;;20.11;58.03;92115.63;2068369;69;20614;-74
2021/06/21 05:27:58;;;;;;;39.42;6.75;;;;;;;20.17;56.81;92117.88;2068503;69;20137;-74
2021/06/21 05:30:24;;;;;;;36.72;7.45;;;;;;;20.46;55.33;92110.44;2068406;69;20141;-74
2021/06/21 05:32:50;;;;;;;41.08;7.82;;;;;;;20.13;58.37;92112.09;2068376;69;20205;-73
2021/06/21 05:35:15;;;;;;;40.55;7.40;;;;;;;20.24;56.41;92107.97;2068266;69;20133;-74
2021/06/21 05:37:41;;;;;;;36.50;7.18;;;;;;;20.22;57.14;92102.25;2068489;69;20176;-74
2021/06/21 05:40:07;;;;;;;41.80;8.00;;;;;;;20.35;56.27;92103.16;2068286;69;20129;-73
2021/06/21 05:42:33;;;;;;;43.33;6.90;;;;;;;20.46;54.34;92113.31;2068447;69;20145;-74
2021/06/21 05:44:59;;;;;;;42.78;7.03;;;;;;;20.44;55.99;92116.88;2068359;69;20153;-74
2021/06/21 05:47:24;;;;;;;42.72;6.82;;;;;;;20.35;58.35;92108.88;2068416;69;20247;-73
2021/06/21 05:49:50;;;;;;;28.20;6.40;;;;;;;20.09;60.22;92114.88;2068368;69;20152;-74
2021/06/21 05:52:16;;;;;;;40.38;7.32;;;;;;;20.28;57.20;92108.03;2068334;69;20156;-73
2021/06/21 05:54:41;;;;;;;41.33;6.93;;;;;;;20.39;58.08;92108.91;2068336;69;20160;-74
2021/06/21 05:57:07;;;;;;;38.90;6.82;;;;;;;20.37;58.43;92106.75;2068354;69;20149;-73
2021/06/21 05:59:33;;;;;;;45.70;8.18;;;;;;;20.26;55.92;92125.88;2068265;69;20143;-74
2021/06/21 06:01:59;;;;;;;36.15;7.15;;;;;;;20.55;55.12;92117.75;2068326;69;20152;-73
2021/06/21 06:04:24;;;;;;;36.78;7.18;;;;;;;20.48;57.96;92113.34;2068208;69;20156;-74
2021/06/21 06:06:50;;;;;;;35.67;6.68;;;;;;;20.51;55.33;92115.56;2068330;69;20136;-73
2021/06/21 06:09:16;;;;;;;43.58;7.40;;;;;;;20.59;57.36;92109.25;2068290;69;20219;-74
2021/06/21 06:11:41;;;;;;;40.03;7.32;;;;;;;20.49;58.06;92106.97;2068447;69;20168;-74
2021/06/21 06:14:07;;;;;;;42.35;7.32;;;;;;;20.65;56.71;92112.19;2068260;69;20504;-73
2021/06/21 06:16:33;;;;;;;39.10;6.78;;;;;;;20.60;57.20;92116.41;2064915;69;20148;-74
2021/06/21 06:18:58;;;;;;;39.20;7.13;;;;;;;20.61;56.00;92108.53;2067919;69;20167;-73
2021/06/21 06:21:29;;;;;;;44.90;7.03;;;;;;;21.05;54.57;92105.56;2064935;69;20586;-73
2021/06/21 06:23:55;;;;;;;45.90;7.28;;;;;;;21.00;55.57;92101.22;2068402;69;20144;-74
2021/06/21 06:26:21;;;;;;;39.25;6.78;;;;;;;21.15;54.02;92102.81;2068262;69;20148;-73
2021/06/21 06:28:46;;;;;;;38.38;6.38;;;;;;;21.40;53.60;92094.56;2068345;69;20527;-74
2021/06/21 06:31:12;;;;;;;41.30;7.03;;;;;;;21.51;53.52;92093.25;2068354;69;20140;-77
2021/06/21 06:33:38;;;;;;;39.47;6.80;;;;;;;21.45;56.67;92098.91;2068189;69;20144;-74
2021/06/21 06:36:04;;;;;;;34.85;6.30;;;;;;;21.53;53.75;92104.69;2068106;69;20184;-75
2021/06/21 06:38:30;;;;;;;36.30;6.70;;;;;;;21.73;53.90;92098.47;2068276;69;20662;-74
2021/06/21 06:40:56;;;;;;;32.17;5.93;;;;;;;21.75;53.37;92090.63;2068165;69;20145;-74
2021/06/21 06:43:21;;;;;;;34.33;5.80;;;;;;;21.86;53.78;92099.31;2068178;69;20160;-74
2021/06/21 06:45:47;;;;;;;32.40;6.45;;;;;;;21.92;52.52;92093.63;2068138;69;20149;-75
2021/06/21 06:48:12;;;;;;;33.75;5.57;;;;;;;22.10;52.56;92099.53;2068729;69;20152;-75
2021/06/21 06:50:38;;;;;;;37.90;6.63;;;;;;;22.09;53.90;92098.09;2068103;69;20164;-75
2021/06/21 06:53:04;;;;;;;30.90;5.65;;;;;;;22.21;53.97;92088.88;2068200;69;20152;-73
2021/06/21 06:58:14;;;;;;;32.90;5.18;;;;;;;22.47;52.06;92085.50;2068211;69;20145;-74
2021/06/21 07:00:40;;;;;;;31.48;5.47;;;;;;;22.57;53.57;92083.41;2068252;69;20596;-74
2021/06/21 07:03:10;;;;;;;38.35;6.57;;;;;;;22.62;53.37;92083.44;2064837;69;20299;-75
2021/06/21 07:05:36;;;;;;;29.98;5.50;;;;;;;22.70;53.61;92077.75;2064682;69;20184;-75
2021/06/21 07:08:02;;;;;;;39.42;5.70;;;;;;;22.80;51.88;92074.94;2068102;69;20251;-75
2021/06/21 07:10:27;;;;;;;45.55;5.60;;;;;;;22.83;52.83;92074.25;2068119;69;20600;-75
2021/06/21 07:12:53;;;;;;;38.20;6.10;;;;;;;22.89;53.99;92076.44;2068071;69;20215;-75
2021/06/21 07:15:19;;;;;;;29.70;5.18;;;;;;;22.96;55.38;92068.59;2068067;69;20179;-75
2021/06/21 07:17:45;;;;;;;31.35;5.65;;;;;;;23.12;52.84;92062.94;2068030;69;20235;-76
2021/06/21 07:20:12;;;;;;;36.45;5.20;;;;;;;23.24;52.90;92065.84;2067908;69;20645;-75
2021/06/21 07:22:38;;;;;;;31.45;5.75;;;;;;;23.31;53.07;92057.97;2068264;69;20140;-75
2021/06/21 07:25:04;;;;;;;43.05;5.93;;;;;;;23.26;52.35;92057.22;2068101;69;20175;-75
2021/06/21 07:27:30;;;;;;;35.78;5.45;;;;;;;23.37;53.70;92057.25;2067985;69;20139;-75
2021/06/21 07:29:57;;;;;;;39.40;6.30;;;;;;;23.37;51.15;92055.13;2068137;69;20156;-75
2021/06/21 07:32:23;;;;;;;37.53;5.95;;;;;;;23.25;50.47;92052.22;2065246;69;20160;-74
2021/06/21 07:34:49;;;;;;;39.67;6.07;;;;;;;23.30;49.37;92056.53;2068400;69;20235;-74
2021/06/21 07:37:14;;;;;;;41.83;6.50;;;;;;;23.42;49.30;92045.09;2068481;69;20263;-75
2021/06/21 07:39:40;;;;;;;46.05;5.88;;;;;;;23.65;49.61;92051.63;2068559;69;20148;-74
2021/06/21 07:42:06;;;;;;;39.92;5.97;;;;;;;23.70;50.81;92047.31;2068484;69;20205;-75
2021/06/21 07:44:34;;;;;;;32.65;6.57;;;;;;;23.61;48.73;92037.22;2068603;69;20318;-74
2021/06/21 07:46:59;;;;;;;36.05;6.13;;;;;;;23.62;48.97;92043.69;2068656;69;20216;-73
2021/06/21 07:49:25;;;;;;;33.38;5.95;;;;;;;23.86;48.56;92043.03;2068354;69;20740;-75
2021/06/21 07:51:51;;;;;;;39.58;5.70;;;;;;;24.01;48.15;92041.63;2068444;69;20152;-74
2021/06/21 07:54:19;;;;;;;35.88;5.80;;;;;;;23.90;47.49;92038.00;2068555;69;20145;-73
2021/06/21 07:56:44;;;;;;;42.78;6.10;;;;;;;24.14;48.31;92036.56;2068682;69;20149;-77
2021/06/21 07:59:10;;;;;;;39.92;5.93;;;;;;;24.33;47.60;92026.50;2068495;69;20513;-74
2021/06/21 08:01:35;;;;;;;38.20;5.38;;;;;;;24.41;47.87;92029.38;2068440;69;20202;-73
2021/06/21 08:04:02;;;;;;;35.35;6.38;;;;;;;24.57;47.42;92026.50;2068395;69;20166;-74
2021/06/21 08:06:27;;;;;;;39.60;5.93;;;;;;;24.59;47.74;92023.59;2068496;69;20165;-74
2021/06/21 08:08:53;;;;;;;38.05;6.32;;;;;;;24.49;48.18;92020.03;2068458;69;20596;-74
2021/06/21 08:11:19;;;;;;;38.70;5.97;;;;;;;24.97;46.54;92013.44;2068480;69;20145;-75
2021/06/21 08:13:44;;;;;;;36.05;6.22;;;;;;;24.94;45.77;92023.50;2068506;69;20148;-75
2021/06/21 08:16:10;;;;;;;39.22;6.88;;;;;;;25.25;44.92;92012.63;2068458;69;20574;-74
2021/06/21 08:18:35;;;;;;;40.15;6.32;;;;;;;25.62;44.92;92014.59;2068460;69;20145;-75
2021/06/21 08:21:02;;;;;;;44.20;6.60;;;;;;;25.64;45.13;92017.44;2068391;69;20604;-75
2021/06/21 08:23:30;;;;;;;36.00;5.95;;;;;;;25.92;45.45;92010.78;2068544;69;20224;-75
2021/06/21 08:25:55;;;;;;;43.40;6.00;;;;;;;26.06;44.08;92014.28;2065307;69;20139;-75
2021/06/21 08:28:21;;;;;;;33.92;5.97;;;;;;;26.39;44.92;92016.91;2065207;69;20148;-76
2021/06/21 08:30:48;;;;;;;37.70;6.10;;;;;;;26.60;43.76;92017.44;2068544;69;20301;-75
2021/06/21 08:33:14;;;;;;;32.15;6.25;;;;;;;27.15;43.20;92005.31;2068528;69;20517;-76
2021/06/21 08:35:40;;;;;;;42.75;6.07;;;;;;;27.75;43.13;92011.06;2068399;69;20140;-76
2021/06/21 08:38:06;;;;;;;38.70;6.07;;;;;;;27.94;41.89;92008.63;2068529;69;20646;-75
2021/06/21 08:40:33;;;;;;;29.48;5.82;;;;;;;28.23;42.89;92011.81;2068496;69;20742;-75
2021/06/21 08:43:00;;;;;;;28.00;6.10;;;;;;;28.62;41.26;92009.00;2068344;69;20210;-75
2021/06/21 08:45:30;;;;;;;35.17;6.22;;;;;;;29.17;40.49;92010.88;2068490;69;20604;-75
2021/06/21 08:47:56;;;;;;;31.80;6.00;;;;;;;29.09;40.99;92002.34;2068480;69;20175;-75
2021/06/21 08:50:22;;;;;;;39.63;6.20;;;;;;;29.50;39.87;92004.41;2068443;69;20151;-75
2021/06/21 08:52:48;;;;;;;34.75;6.28;;;;;;;29.78;38.67;91997.31;2068506;69;20141;-75
2021/06/21 08:55:14;;;;;;;38.83;5.97;;;;;;;29.86;38.47;91991.34;2068466;69;20531;-75
2021/06/21 08:57:43;;;;;;;35.63;6.18;;;;;;;30.52;39.46;91997.06;2068585;69;20155;-75
2021/06/21 09:00:11;;;;;;;44.40;6.57;;;;;;;30.87;37.35;91996.88;2068395;69;20202;-75
2021/06/21 09:02:37;;;;;;;34.58;5.72;;;;;;;31.18;36.85;91983.72;2068601;69;20152;-75
2021/06/21 09:05:06;;;;;;;40.90;6.55;;;;;;;30.50;37.26;91987.66;2068393;69;20171;-75
2021/06/21 09:07:32;;;;;;;36.83;6.55;;;;;;;31.21;36.74;91988.00;2068492;69;20191;-75
2021/06/21 09:09:58;;;;;;;32.97;5.88;;;;;;;31.50;37.50;91979.22;2068459;69;20612;-75
2021/06/21 09:12:28;;;;;;;39.35;5.93;;;;;;;32.40;35.26;91985.25;2065109;69;20662;-75
2021/06/21 09:14:56;;;;;;;36.50;6.35;;;;;;;31.91;32.09;91981.63;2068421;69;20140;-76
2021/06/21 09:17:24;;;;;;;38.75;5.80;;;;;;;31.86;33.96;91978.13;2068497;69;20538;-76
2021/06/21 09:19:59;;;;;;;39.00;6.43;;;;;;;32.08;33.10;91973.13;2068369;69;20144;-75
2021/06/21 09:22:31;;;;;;;32.22;6.15;;;;;;;32.37;34.61;91967.81;2068405;69;20136;-77
2021/06/21 09:25:17;;;;;;;43.15;5.85;;;;;;;32.67;30.26;91962.50;2068648;69;20145;-75
2021/06/21 09:28:01;;;;;;;35.35;5.65;;;;;;;32.89;29.59;91967.53;2065844;69;20164;-77
2021/06/21 09:30:28;;;;;;;35.92;5.45;;;;;;;32.80;33.04;91965.66;2068380;69;20159;-78
2021/06/21 09:32:56;;;;;;;37.85;5.90;;;;;;;33.04;32.41;91958.31;2068373;69;20596;-78
2021/06/21 09:35:31;;;;;;;33.00;6.07;;;;;;;33.65;31.10;91956.09;2068424;69;20729;-76
2021/06/21 09:37:59;;;;;;;34.97;6.20;;;;;;;33.70;31.51;91956.66;2068374;69;20189;-76
2021/06/21 09:40:26;;;;;;;35.25;5.60;;;;;;;33.53;29.68;91953.63;2068520;69;20569;-76
2021/06/21 09:42:52;;;;;;;36.72;5.97;;;;;;;34.05;29.16;91948.03;2068505;69;20168;-76
2021/06/21 09:45:18;;;;;;;36.25;5.95;;;;;;;33.29;28.29;91943.56;2068364;69;20156;-79
2021/06/21 09:47:43;;;;;;;36.25;5.18;;;;;;;33.47;27.83;91939.28;2068350;69;20148;-76
2021/06/21 09:50:11;;;;;;;44.58;6.00;;;;;;;32.81;27.32;91938.69;2068216;69;20228;-76
2021/06/21 09:52:46;;;;;;;32.72;5.65;;;;;;;33.90;27.96;91932.53;2068355;69;20613;-76
2021/06/21 09:55:22;;;;;;;35.30;5.93;;;;;;;34.46;28.38;91939.84;2068396;69;20589;-76
2021/06/21 09:58:00;;;;;;;32.28;5.97;;;;;;;34.39;24.58;91942.28;2068484;69;20160;-76
2021/06/21 10:00:27;;;;;;;35.55;5.53;;;;;;;34.40;26.59;91932.00;2068454;69;20263;-76
2021/06/21 10:03:14;;;;;;;30.45;5.03;;;;;;;34.84;28.17;91931.66;2068326;69;20199;-76
2021/06/21 10:05:43;;;;;;;40.05;5.75;;;;;;;35.43;27.11;91934.25;2068281;69;20677;-77
2021/06/21 10:08:11;;;;;;;30.30;5.63;;;;;;;35.98;27.50;91931.78;2068319;69;20128;-76
2021/06/21 10:10:38;;;;;;;36.47;5.78;;;;;;;35.57;26.49;91936.56;2068482;69;20210;-76
2021/06/21 10:13:05;;;;;;;37.30;5.97;;;;;;;36.49;25.49;91932.97;2068328;69;20159;-77
2021/06/21 10:15:32;;;;;;;36.22;5.80;;;;;;;36.50;24.26;91930.75;2068293;69;20606;-75
2021/06/21 10:17:58;;;;;;;37.38;5.65;;;;;;;35.74;23.92;91927.72;2068268;69;20148;-79
2021/06/21 10:20:24;;;;;;;29.70;5.75;;;;;;;35.97;24.46;91913.50;2068076;69;20152;-78
2021/06/21 10:22:49;;;;;;;34.17;5.55;;;;;;;36.60;23.55;91918.50;2068286;69;20231;-76
2021/06/21 10:25:15;;;;;;;27.92;5.40;;;;;;;35.51;24.97;91914.13;2068399;69;20147;-76
2021/06/21 10:27:46;;;;;;;33.97;5.90;;;;;;;35.23;25.07;91904.38;2068289;69;20160;-77
2021/06/21 10:30:14;;;;;;;36.30;5.95;;;;;;;36.12;24.58;91908.38;2068417;69;20180;-76
2021/06/21 10:32:41;;;;;;;35.70;5.65;;;;;;;36.81;23.53;91898.38;2068302;69;20236;-77
2021/06/21 10:35:11;;;;;;;31.33;5.32;;;;;;;37.29;25.16;91899.63;2068153;69;20246;-77
2021/06/21 10:37:37;;;;;;;28.83;5.65;;;;;;;37.69;22.95;91893.13;2068298;69;20149;-76
2021/06/21 10:40:09;;;;;;;36.55;5.40;;;;;;;38.61;22.90;91897.53;2068169;69;20168;-76
2021/06/21 10:42:36;;;;;;;;;;;;;;;37.16;22.37;91890.78;2068389;69;20603;-76
2021/06/21 10:45:04;;;;;;;35.22;5.45;;;;;;;38.61;22.48;91894.59;2068217;69;20071;-76
2021/06/21 10:47:41;;;;;;;31.92;5.60;;;;;;;39.52;22.84;91891.38;2068201;69;20156;-78
2021/06/21 10:50:16;;;;;;;29.80;5.40;;;;;;;39.18;21.68;91897.13;2068079;69;20156;-77
2021/06/21 10:52:51;;;;;;;29.20;5.88;;;;;;;37.79;21.48;91886.69;2064789;69;20140;-77
2021/06/21 10:57:49;;;;;;;34.38;5.63;;;;;;;38.09;22.32;91887.97;2068192;69;20199;-78
2021/06/21 11:00:17;;;;;;;27.38;5.35;;;;;;;37.99;21.84;91890.75;2068149;69;20244;-77
2021/06/21 11:02:42;;;;;;;34.58;6.07;;;;;;;37.14;23.02;91888.63;2067602;69;20239;-78
2021/06/21 11:05:09;;;;;;;29.92;5.57;;;;;;;38.18;23.02;91882.31;2069346;69;20263;-77
2021/06/21 11:07:36;;;;;;;32.33;5.95;;;;;;;37.53;22.12;91891.78;2070962;69;20270;-76
2021/06/21 11:10:04;;;;;;;38.15;5.55;;;;;;;36.20;23.84;91886.75;2070888;69;20193;-77
2021/06/21 11:12:34;;;;;;;36.00;5.32;;;;;;;38.18;22.08;91887.50;2071555;69;20195;-77
2021/06/21 11:15:03;;;;;;;25.10;5.10;;;;;;;39.01;21.45;91882.00;2071753;69;20147;-77
2021/06/21 11:17:30;;;;;;;34.60;5.78;;;;;;;41.64;18.22;91882.75;2071514;69;20152;-76
2021/06/21 11:19:57;;;;;;;37.45;5.75;;;;;;;41.07;18.71;91883.72;2071592;69;20145;-78
2021/06/21 11:22:42;;;;;;;29.83;5.47;;;;;;;40.11;19.98;91878.19;2071521;69;20176;-76
2021/06/21 11:25:21;;;;;;;36.47;5.28;;;;;;;43.60;17.41;91886.84;2071570;69;20149;-76
2021/06/21 11:27:47;;;;;;;29.75;6.47;;;;;;;38.48;19.81;91876.25;2071641;69;20201;-78
2021/06/21 11:30:27;;;;;;;32.58;5.20;;;;;;;39.02;20.93;91875.28;2071702;69;20617;-78
2021/06/21 11:32:59;;;;;;;27.23;5.10;;;;;;;41.91;18.66;91880.91;2071637;69;20183;-77